sensor_id;sensor_type;location;lat;lon;timestamp;P1;durP1;ratioP1;P2;durP2;ratioP2
26634;SDS011;14490;54.208;37.686;2023-06-22T00:00:52;14.80;;;6.43;;
26634;SDS011;14490;54.208;37.686;2023-06-22T00:06:07;11.70;;;6.10;;
26634;SDS011;14490;54.208;37.686;2023-06-22T00:08:34;15.35;;;7.18;;
26634;SDS011;14490;54.208;37.686;2023-06-22T00:11:02;10.40;;;6.57;;
26634;SDS011;14490;54.208;37.686;2023-06-22T00:13:29;12.82;;;6.13;;
26634;SDS011;14490;54.208;37.686;2023-06-22T00:15:57;8.57;;;5.85;;
26634;SDS011;14490;54.208;37.686;2023-06-22T00:18:24;12.50;;;6.10;;
26634;SDS011;14490;54.208;37.686;2023-06-22T00:20:55;14.57;;;6.50;;
26634;SDS011;14490;54.208;37.686;2023-06-22T00:23:24;10.50;;;6.25;;
26634;SDS011;14490;54.208;37.686;2023-06-22T00:25:51;13.75;;;5.65;;
26634;SDS011;14490;54.208;37.686;2023-06-22T00:28:19;14.77;;;6.70;;
26634;SDS011;14490;54.208;37.686;2023-06-22T00:30:48;10.52;;;6.10;;
26634;SDS011;14490;54.208;37.686;2023-06-22T00:33:16;15.35;;;6.95;;
26634;SDS011;14490;54.208;37.686;2023-06-22T00:35:43;12.15;;;5.32;;
26634;SDS011;14490;54.208;37.686;2023-06-22T00:38:12;18.13;;;5.68;;
26634;SDS011;14490;54.208;37.686;2023-06-22T00:40:40;20.15;;;5.22;;
26634;SDS011;14490;54.208;37.686;2023-06-22T00:43:07;9.05;;;4.35;;
26634;SDS011;14490;54.208;37.686;2023-06-22T00:45:35;10.15;;;4.93;;
26634;SDS011;14490;54.208;37.686;2023-06-22T00:48:03;11.98;;;6.07;;
26634;SDS011;14490;54.208;37.686;2023-06-22T00:50:32;10.40;;;4.25;;
26634;SDS011;14490;54.208;37.686;2023-06-22T00:53:01;11.02;;;4.75;;
26634;SDS011;14490;54.208;37.686;2023-06-22T00:55:35;8.18;;;5.40;;
26634;SDS011;14490;54.208;37.686;2023-06-22T00:58:03;8.98;;;4.53;;
26634;SDS011;14490;54.208;37.686;2023-06-22T01:03:03;9.30;;;4.45;;
26634;SDS011;14490;54.208;37.686;2023-06-22T01:05:34;5.57;;;4.57;;
26634;SDS011;14490;54.208;37.686;2023-06-22T01:08:12;8.80;;;4.93;;
26634;SDS011;14490;54.208;37.686;2023-06-22T01:10:52;7.65;;;4.45;;
26634;SDS011;14490;54.208;37.686;2023-06-22T01:13:28;13.38;;;6.18;;
26634;SDS011;14490;54.208;37.686;2023-06-22T01:16:03;9.45;;;5.38;;
26634;SDS011;14490;54.208;37.686;2023-06-22T01:18:36;7.60;;;5.22;;
26634;SDS011;14490;54.208;37.686;2023-06-22T01:21:10;8.82;;;5.72;;
26634;SDS011;14490;54.208;37.686;2023-06-22T01:23:58;9.43;;;4.70;;
26634;SDS011;14490;54.208;37.686;2023-06-22T01:26:42;8.52;;;5.38;;
26634;SDS011;14490;54.208;37.686;2023-06-22T01:29:22;11.13;;;6.15;;
26634;SDS011;14490;54.208;37.686;2023-06-22T01:31:54;12.32;;;5.97;;
26634;SDS011;14490;54.208;37.686;2023-06-22T01:34:23;23.92;;;8.05;;
26634;SDS011;14490;54.208;37.686;2023-06-22T01:36:51;24.63;;;8.18;;
26634;SDS011;14490;54.208;37.686;2023-06-22T01:39:20;12.18;;;6.95;;
26634;SDS011;14490;54.208;37.686;2023-06-22T01:41:49;18.05;;;8.27;;
26634;SDS011;14490;54.208;37.686;2023-06-22T01:44:17;25.73;;;9.68;;
26634;SDS011;14490;54.208;37.686;2023-06-22T01:46:46;22.38;;;8.60;;
26634;SDS011;14490;54.208;37.686;2023-06-22T01:49:16;19.75;;;7.88;;
26634;SDS011;14490;54.208;37.686;2023-06-22T01:51:43;19.05;;;9.23;;
26634;SDS011;14490;54.208;37.686;2023-06-22T01:54:11;24.83;;;9.85;;
26634;SDS011;14490;54.208;37.686;2023-06-22T01:56:39;24.75;;;9.07;;
26634;SDS011;14490;54.208;37.686;2023-06-22T01:59:08;24.48;;;9.60;;
26634;SDS011;14490;54.208;37.686;2023-06-22T02:01:42;24.05;;;9.15;;
26634;SDS011;14490;54.208;37.686;2023-06-22T02:04:18;19.83;;;8.93;;
26634;SDS011;14490;54.208;37.686;2023-06-22T02:06:51;26.50;;;9.30;;
26634;SDS011;14490;54.208;37.686;2023-06-22T02:09:24;18.15;;;9.38;;
26634;SDS011;14490;54.208;37.686;2023-06-22T02:11:55;23.80;;;8.68;;
26634;SDS011;14490;54.208;37.686;2023-06-22T02:14:25;28.40;;;9.63;;
26634;SDS011;14490;54.208;37.686;2023-06-22T02:16:54;22.38;;;10.00;;
26634;SDS011;14490;54.208;37.686;2023-06-22T02:19:24;22.90;;;10.68;;
26634;SDS011;14490;54.208;37.686;2023-06-22T02:21:51;21.95;;;9.32;;
26634;SDS011;14490;54.208;37.686;2023-06-22T02:24:19;16.75;;;9.25;;
26634;SDS011;14490;54.208;37.686;2023-06-22T02:26:49;17.88;;;9.55;;
26634;SDS011;14490;54.208;37.686;2023-06-22T02:29:16;22.63;;;8.85;;
26634;SDS011;14490;54.208;37.686;2023-06-22T02:31:44;18.25;;;9.13;;
26634;SDS011;14490;54.208;37.686;2023-06-22T02:34:13;26.45;;;9.57;;
26634;SDS011;14490;54.208;37.686;2023-06-22T02:36:43;21.33;;;9.23;;
26634;SDS011;14490;54.208;37.686;2023-06-22T02:39:16;23.58;;;9.15;;
26634;SDS011;14490;54.208;37.686;2023-06-22T02:41:45;23.42;;;9.68;;
26634;SDS011;14490;54.208;37.686;2023-06-22T02:44:13;26.60;;;11.10;;
26634;SDS011;14490;54.208;37.686;2023-06-22T02:46:40;24.75;;;10.23;;
26634;SDS011;14490;54.208;37.686;2023-06-22T02:51:58;27.17;;;10.23;;
26634;SDS011;14490;54.208;37.686;2023-06-22T02:54:26;29.45;;;9.65;;
26634;SDS011;14490;54.208;37.686;2023-06-22T02:56:53;28.08;;;9.82;;
26634;SDS011;14490;54.208;37.686;2023-06-22T02:59:21;30.35;;;11.20;;
26634;SDS011;14490;54.208;37.686;2023-06-22T03:01:48;22.00;;;9.60;;
26634;SDS011;14490;54.208;37.686;2023-06-22T03:04:16;33.15;;;11.63;;
26634;SDS011;14490;54.208;37.686;2023-06-22T03:06:46;30.90;;;11.10;;
26634;SDS011;14490;54.208;37.686;2023-06-22T03:09:16;36.25;;;13.23;;
26634;SDS011;14490;54.208;37.686;2023-06-22T03:11:44;43.25;;;12.77;;
26634;SDS011;14490;54.208;37.686;2023-06-22T03:14:11;40.47;;;12.48;;
26634;SDS011;14490;54.208;37.686;2023-06-22T03:16:39;84.57;;;20.35;;
26634;SDS011;14490;54.208;37.686;2023-06-22T03:19:07;61.00;;;18.23;;
26634;SDS011;14490;54.208;37.686;2023-06-22T03:21:34;73.38;;;20.05;;
26634;SDS011;14490;54.208;37.686;2023-06-22T03:24:05;72.18;;;19.77;;
26634;SDS011;14490;54.208;37.686;2023-06-22T03:26:33;60.33;;;17.75;;
26634;SDS011;14490;54.208;37.686;2023-06-22T03:29:01;72.85;;;21.30;;
26634;SDS011;14490;54.208;37.686;2023-06-22T03:31:28;68.22;;;19.20;;
26634;SDS011;14490;54.208;37.686;2023-06-22T03:33:56;77.13;;;19.17;;
26634;SDS011;14490;54.208;37.686;2023-06-22T03:36:23;65.05;;;17.75;;
26634;SDS011;14490;54.208;37.686;2023-06-22T03:38:51;55.25;;;15.38;;
26634;SDS011;14490;54.208;37.686;2023-06-22T03:41:20;53.13;;;15.15;;
26634;SDS011;14490;54.208;37.686;2023-06-22T03:43:47;35.55;;;11.50;;
26634;SDS011;14490;54.208;37.686;2023-06-22T03:46:15;33.22;;;12.07;;
26634;SDS011;14490;54.208;37.686;2023-06-22T03:48:42;43.47;;;10.57;;
26634;SDS011;14490;54.208;37.686;2023-06-22T03:51:10;27.52;;;9.98;;
26634;SDS011;14490;54.208;37.686;2023-06-22T03:53:38;22.63;;;9.05;;
26634;SDS011;14490;54.208;37.686;2023-06-22T03:56:05;22.88;;;11.40;;
26634;SDS011;14490;54.208;37.686;2023-06-22T03:58:34;22.23;;;9.27;;
26634;SDS011;14490;54.208;37.686;2023-06-22T04:01:07;25.35;;;8.88;;
26634;SDS011;14490;54.208;37.686;2023-06-22T04:03:36;18.20;;;8.00;;
26634;SDS011;14490;54.208;37.686;2023-06-22T04:06:04;31.10;;;8.65;;
26634;SDS011;14490;54.208;37.686;2023-06-22T04:08:31;22.65;;;8.45;;
26634;SDS011;14490;54.208;37.686;2023-06-22T04:10:59;21.55;;;7.07;;
26634;SDS011;14490;54.208;37.686;2023-06-22T04:13:27;20.23;;;7.95;;
26634;SDS011;14490;54.208;37.686;2023-06-22T04:15:57;20.63;;;7.75;;
26634;SDS011;14490;54.208;37.686;2023-06-22T04:18:26;21.23;;;8.18;;
26634;SDS011;14490;54.208;37.686;2023-06-22T04:20:54;22.08;;;6.90;;
26634;SDS011;14490;54.208;37.686;2023-06-22T04:23:21;10.68;;;6.25;;
26634;SDS011;14490;54.208;37.686;2023-06-22T04:25:49;14.55;;;6.90;;
26634;SDS011;14490;54.208;37.686;2023-06-22T04:28:17;12.27;;;5.10;;
26634;SDS011;14490;54.208;37.686;2023-06-22T04:30:44;16.25;;;5.63;;
26634;SDS011;14490;54.208;37.686;2023-06-22T04:33:14;10.88;;;5.90;;
26634;SDS011;14490;54.208;37.686;2023-06-22T04:35:44;10.82;;;5.80;;
26634;SDS011;14490;54.208;37.686;2023-06-22T04:38:12;13.13;;;5.80;;
26634;SDS011;14490;54.208;37.686;2023-06-22T04:40:40;17.98;;;6.30;;
26634;SDS011;14490;54.208;37.686;2023-06-22T04:43:07;25.98;;;5.88;;
26634;SDS011;14490;54.208;37.686;2023-06-22T04:45:35;14.80;;;6.40;;
26634;SDS011;14490;54.208;37.686;2023-06-22T04:48:03;17.65;;;6.63;;
26634;SDS011;14490;54.208;37.686;2023-06-22T04:50:40;15.45;;;6.32;;
26634;SDS011;14490;54.208;37.686;2023-06-22T04:53:09;15.05;;;5.80;;
26634;SDS011;14490;54.208;37.686;2023-06-22T04:55:37;7.90;;;5.93;;
26634;SDS011;14490;54.208;37.686;2023-06-22T04:58:06;12.38;;;6.30;;
26634;SDS011;14490;54.208;37.686;2023-06-22T05:00:34;10.30;;;5.93;;
26634;SDS011;14490;54.208;37.686;2023-06-22T05:03:02;16.77;;;5.90;;
26634;SDS011;14490;54.208;37.686;2023-06-22T05:05:37;13.77;;;6.80;;
26634;SDS011;14490;54.208;37.686;2023-06-22T05:08:07;14.38;;;6.13;;
26634;SDS011;14490;54.208;37.686;2023-06-22T05:10:43;19.35;;;6.30;;
26634;SDS011;14490;54.208;37.686;2023-06-22T05:13:11;14.00;;;6.38;;
26634;SDS011;14490;54.208;37.686;2023-06-22T05:15:38;15.13;;;6.43;;
26634;SDS011;14490;54.208;37.686;2023-06-22T05:18:06;14.98;;;6.53;;
26634;SDS011;14490;54.208;37.686;2023-06-22T05:20:33;13.10;;;6.72;;
26634;SDS011;14490;54.208;37.686;2023-06-22T05:23:03;12.80;;;6.15;;
26634;SDS011;14490;54.208;37.686;2023-06-22T05:25:30;9.25;;;6.03;;
26634;SDS011;14490;54.208;37.686;2023-06-22T05:27:58;10.30;;;5.85;;
26634;SDS011;14490;54.208;37.686;2023-06-22T05:30:26;14.45;;;5.93;;
26634;SDS011;14490;54.208;37.686;2023-06-22T05:32:54;16.10;;;5.90;;
26634;SDS011;14490;54.208;37.686;2023-06-22T05:35:21;13.98;;;5.65;;
26634;SDS011;14490;54.208;37.686;2023-06-22T05:37:49;17.92;;;6.05;;
26634;SDS011;14490;54.208;37.686;2023-06-22T05:40:18;15.38;;;6.78;;
26634;SDS011;14490;54.208;37.686;2023-06-22T05:42:46;9.25;;;5.40;;
26634;SDS011;14490;54.208;37.686;2023-06-22T05:45:13;11.75;;;4.88;;
26634;SDS011;14490;54.208;37.686;2023-06-22T05:47:41;10.75;;;4.88;;
26634;SDS011;14490;54.208;37.686;2023-06-22T05:50:09;12.02;;;5.88;;
26634;SDS011;14490;54.208;37.686;2023-06-22T05:52:38;12.77;;;5.20;;
26634;SDS011;14490;54.208;37.686;2023-06-22T05:55:09;4.70;;;4.07;;
26634;SDS011;14490;54.208;37.686;2023-06-22T05:57:42;12.98;;;4.85;;
26634;SDS011;14490;54.208;37.686;2023-06-22T06:00:10;10.55;;;4.95;;
26634;SDS011;14490;54.208;37.686;2023-06-22T06:02:50;11.20;;;5.25;;
26634;SDS011;14490;54.208;37.686;2023-06-22T06:05:18;9.18;;;4.22;;
26634;SDS011;14490;54.208;37.686;2023-06-22T06:08:02;6.53;;;4.85;;
26634;SDS011;14490;54.208;37.686;2023-06-22T06:10:47;7.22;;;3.40;;
26634;SDS011;14490;54.208;37.686;2023-06-22T06:13:23;7.47;;;2.13;;
26634;SDS011;14490;54.208;37.686;2023-06-22T06:16:01;7.13;;;2.70;;
26634;SDS011;14490;54.208;37.686;2023-06-22T06:22:18;5.10;;;1.80;;
26634;SDS011;14490;54.208;37.686;2023-06-22T06:24:49;3.37;;;2.03;;
26634;SDS011;14490;54.208;37.686;2023-06-22T06:27:23;2.35;;;1.85;;
26634;SDS011;14490;54.208;37.686;2023-06-22T06:30:13;3.08;;;2.03;;
26634;SDS011;14490;54.208;37.686;2023-06-22T06:32:51;4.93;;;3.00;;
26634;SDS011;14490;54.208;37.686;2023-06-22T06:35:26;14.77;;;5.22;;
26634;SDS011;14490;54.208;37.686;2023-06-22T06:37:56;4.35;;;2.47;;
26634;SDS011;14490;54.208;37.686;2023-06-22T06:40:34;10.18;;;3.08;;
26634;SDS011;14490;54.208;37.686;2023-06-22T06:43:14;6.47;;;3.00;;
26634;SDS011;14490;54.208;37.686;2023-06-22T06:45:45;6.63;;;3.08;;
26634;SDS011;14490;54.208;37.686;2023-06-22T06:48:15;4.63;;;3.40;;
26634;SDS011;14490;54.208;37.686;2023-06-22T06:50:43;12.38;;;4.28;;
26634;SDS011;14490;54.208;37.686;2023-06-22T06:53:11;6.75;;;2.40;;
26634;SDS011;14490;54.208;37.686;2023-06-22T06:55:44;4.85;;;3.03;;
26634;SDS011;14490;54.208;37.686;2023-06-22T06:58:14;3.20;;;2.90;;
26634;SDS011;14490;54.208;37.686;2023-06-22T07:00:42;12.20;;;2.92;;
26634;SDS011;14490;54.208;37.686;2023-06-22T07:03:17;11.10;;;3.10;;
26634;SDS011;14490;54.208;37.686;2023-06-22T07:05:44;5.40;;;2.20;;
26634;SDS011;14490;54.208;37.686;2023-06-22T07:08:12;4.45;;;2.10;;
26634;SDS011;14490;54.208;37.686;2023-06-22T07:10:40;3.47;;;2.50;;
26634;SDS011;14490;54.208;37.686;2023-06-22T07:13:07;3.58;;;1.73;;
26634;SDS011;14490;54.208;37.686;2023-06-22T07:15:35;6.28;;;2.60;;
26634;SDS011;14490;54.208;37.686;2023-06-22T07:18:02;4.88;;;2.78;;
26634;SDS011;14490;54.208;37.686;2023-06-22T07:20:34;3.60;;;1.80;;
26634;SDS011;14490;54.208;37.686;2023-06-22T07:23:01;3.83;;;2.25;;
26634;SDS011;14490;54.208;37.686;2023-06-22T07:25:29;2.00;;;1.80;;
26634;SDS011;14490;54.208;37.686;2023-06-22T07:27:58;3.75;;;2.78;;
26634;SDS011;14490;54.208;37.686;2023-06-22T07:30:27;4.82;;;2.35;;
26634;SDS011;14490;54.208;37.686;2023-06-22T07:32:59;3.40;;;2.63;;
26634;SDS011;14490;54.208;37.686;2023-06-22T07:35:38;5.15;;;2.47;;
26634;SDS011;14490;54.208;37.686;2023-06-22T07:38:15;3.75;;;1.95;;
26634;SDS011;14490;54.208;37.686;2023-06-22T07:40:48;4.47;;;2.08;;
26634;SDS011;14490;54.208;37.686;2023-06-22T07:43:24;5.03;;;2.88;;
26634;SDS011;14490;54.208;37.686;2023-06-22T07:46:06;2.45;;;2.05;;
26634;SDS011;14490;54.208;37.686;2023-06-22T07:48:36;2.28;;;2.08;;
26634;SDS011;14490;54.208;37.686;2023-06-22T07:51:07;2.60;;;2.25;;
26634;SDS011;14490;54.208;37.686;2023-06-22T07:53:38;2.45;;;2.25;;
26634;SDS011;14490;54.208;37.686;2023-06-22T07:56:06;3.38;;;2.75;;
26634;SDS011;14490;54.208;37.686;2023-06-22T07:58:33;2.25;;;2.08;;
26634;SDS011;14490;54.208;37.686;2023-06-22T08:01:01;2.53;;;2.20;;
26634;SDS011;14490;54.208;37.686;2023-06-22T08:03:29;14.70;;;2.70;;
26634;SDS011;14490;54.208;37.686;2023-06-22T08:05:56;4.30;;;2.53;;
26634;SDS011;14490;54.208;37.686;2023-06-22T08:08:25;2.33;;;2.10;;
26634;SDS011;14490;54.208;37.686;2023-06-22T08:10:53;3.10;;;2.40;;
26634;SDS011;14490;54.208;37.686;2023-06-22T08:13:20;5.50;;;2.40;;
26634;SDS011;14490;54.208;37.686;2023-06-22T08:15:48;3.85;;;2.28;;
26634;SDS011;14490;54.208;37.686;2023-06-22T08:18:15;9.73;;;2.47;;
26634;SDS011;14490;54.208;37.686;2023-06-22T08:20:43;2.40;;;2.20;;
26634;SDS011;14490;54.208;37.686;2023-06-22T08:23:10;4.43;;;2.47;;
26634;SDS011;14490;54.208;37.686;2023-06-22T08:25:39;2.85;;;2.15;;
26634;SDS011;14490;54.208;37.686;2023-06-22T08:28:07;3.33;;;1.95;;
26634;SDS011;14490;54.208;37.686;2023-06-22T08:30:35;3.47;;;2.35;;
26634;SDS011;14490;54.208;37.686;2023-06-22T08:33:02;8.45;;;2.50;;
26634;SDS011;14490;54.208;37.686;2023-06-22T08:35:32;4.33;;;2.47;;
26634;SDS011;14490;54.208;37.686;2023-06-22T08:38:01;7.55;;;2.40;;
26634;SDS011;14490;54.208;37.686;2023-06-22T08:40:29;4.68;;;2.58;;
26634;SDS011;14490;54.208;37.686;2023-06-22T08:42:58;3.05;;;2.30;;
26634;SDS011;14490;54.208;37.686;2023-06-22T08:45:26;2.63;;;2.25;;
26634;SDS011;14490;54.208;37.686;2023-06-22T08:47:53;5.35;;;3.17;;
26634;SDS011;14490;54.208;37.686;2023-06-22T08:50:21;6.70;;;2.33;;
26634;SDS011;14490;54.208;37.686;2023-06-22T08:52:49;4.35;;;2.95;;
26634;SDS011;14490;54.208;37.686;2023-06-22T08:55:16;3.10;;;2.80;;
26634;SDS011;14490;54.208;37.686;2023-06-22T08:57:44;3.58;;;2.45;;
26634;SDS011;14490;54.208;37.686;2023-06-22T09:00:17;4.95;;;1.83;;
26634;SDS011;14490;54.208;37.686;2023-06-22T09:02:48;5.25;;;2.80;;
26634;SDS011;14490;54.208;37.686;2023-06-22T09:05:15;5.75;;;2.15;;
26634;SDS011;14490;54.208;37.686;2023-06-22T09:07:47;2.55;;;2.33;;
26634;SDS011;14490;54.208;37.686;2023-06-22T09:10:16;3.53;;;2.03;;
26634;SDS011;14490;54.208;37.686;2023-06-22T09:12:46;4.90;;;2.00;;
26634;SDS011;14490;54.208;37.686;2023-06-22T09:15:18;5.68;;;2.22;;
26634;SDS011;14490;54.208;37.686;2023-06-22T09:17:47;2.67;;;2.47;;
26634;SDS011;14490;54.208;37.686;2023-06-22T09:20:14;5.70;;;2.78;;
26634;SDS011;14490;54.208;37.686;2023-06-22T09:22:45;2.42;;;2.20;;
26634;SDS011;14490;54.208;37.686;2023-06-22T09:25:20;3.90;;;2.05;;
26634;SDS011;14490;54.208;37.686;2023-06-22T09:27:52;2.63;;;2.42;;
26634;SDS011;14490;54.208;37.686;2023-06-22T09:30:25;9.85;;;2.65;;
26634;SDS011;14490;54.208;37.686;2023-06-22T09:32:53;5.25;;;2.35;;
26634;SDS011;14490;54.208;37.686;2023-06-22T09:35:31;5.70;;;2.50;;
26634;SDS011;14490;54.208;37.686;2023-06-22T09:37:59;5.32;;;2.05;;
26634;SDS011;14490;54.208;37.686;2023-06-22T09:40:33;3.22;;;2.92;;
26634;SDS011;14490;54.208;37.686;2023-06-22T09:43:07;2.45;;;2.00;;
26634;SDS011;14490;54.208;37.686;2023-06-22T09:45:40;5.93;;;2.20;;
26634;SDS011;14490;54.208;37.686;2023-06-22T09:48:11;5.53;;;2.25;;
26634;SDS011;14490;54.208;37.686;2023-06-22T09:50:43;2.17;;;1.98;;
26634;SDS011;14490;54.208;37.686;2023-06-22T09:53:12;10.93;;;2.63;;
26634;SDS011;14490;54.208;37.686;2023-06-22T09:55:49;4.95;;;2.60;;
26634;SDS011;14490;54.208;37.686;2023-06-22T09:58:17;2.60;;;2.40;;
26634;SDS011;14490;54.208;37.686;2023-06-22T10:00:50;4.32;;;2.78;;
26634;SDS011;14490;54.208;37.686;2023-06-22T10:03:19;2.25;;;2.00;;
26634;SDS011;14490;54.208;37.686;2023-06-22T10:05:48;5.53;;;2.20;;
26634;SDS011;14490;54.208;37.686;2023-06-22T10:08:15;6.45;;;2.95;;
26634;SDS011;14490;54.208;37.686;2023-06-22T10:10:45;5.28;;;2.33;;
26634;SDS011;14490;54.208;37.686;2023-06-22T10:13:13;2.97;;;2.70;;
26634;SDS011;14490;54.208;37.686;2023-06-22T10:15:42;4.10;;;2.20;;
26634;SDS011;14490;54.208;37.686;2023-06-22T10:18:16;4.55;;;2.53;;
26634;SDS011;14490;54.208;37.686;2023-06-22T10:20:44;2.58;;;2.38;;
26634;SDS011;14490;54.208;37.686;2023-06-22T10:23:12;4.10;;;2.30;;
26634;SDS011;14490;54.208;37.686;2023-06-22T10:25:41;4.55;;;2.03;;
26634;SDS011;14490;54.208;37.686;2023-06-22T10:28:09;6.38;;;2.40;;
26634;SDS011;14490;54.208;37.686;2023-06-22T10:30:37;5.35;;;2.75;;
26634;SDS011;14490;54.208;37.686;2023-06-22T10:33:06;7.40;;;2.88;;
26634;SDS011;14490;54.208;37.686;2023-06-22T10:35:36;2.63;;;2.42;;
26634;SDS011;14490;54.208;37.686;2023-06-22T10:38:05;2.95;;;2.70;;
26634;SDS011;14490;54.208;37.686;2023-06-22T10:40:33;4.85;;;2.33;;
26634;SDS011;14490;54.208;37.686;2023-06-22T10:43:01;4.53;;;3.17;;
26634;SDS011;14490;54.208;37.686;2023-06-22T10:45:29;6.25;;;3.00;;
26634;SDS011;14490;54.208;37.686;2023-06-22T10:47:59;6.43;;;3.08;;
26634;SDS011;14490;54.208;37.686;2023-06-22T10:50:26;4.00;;;2.92;;
26634;SDS011;14490;54.208;37.686;2023-06-22T10:52:55;3.30;;;2.85;;
26634;SDS011;14490;54.208;37.686;2023-06-22T10:55:23;2.88;;;2.60;;
26634;SDS011;14490;54.208;37.686;2023-06-22T10:57:50;2.90;;;2.60;;
26634;SDS011;14490;54.208;37.686;2023-06-22T11:00:18;5.40;;;2.75;;
26634;SDS011;14490;54.208;37.686;2023-06-22T11:02:46;2.72;;;2.33;;
26634;SDS011;14490;54.208;37.686;2023-06-22T11:05:14;4.53;;;2.65;;
26634;SDS011;14490;54.208;37.686;2023-06-22T11:07:41;3.97;;;2.78;;
26634;SDS011;14490;54.208;37.686;2023-06-22T11:10:11;3.33;;;1.98;;
26634;SDS011;14490;54.208;37.686;2023-06-22T11:12:39;4.32;;;2.83;;
26634;SDS011;14490;54.208;37.686;2023-06-22T11:15:08;4.72;;;2.05;;
26634;SDS011;14490;54.208;37.686;2023-06-22T11:17:35;3.47;;;2.33;;
26634;SDS011;14490;54.208;37.686;2023-06-22T11:20:03;3.13;;;2.53;;
26634;SDS011;14490;54.208;37.686;2023-06-22T11:22:36;4.93;;;2.35;;
26634;SDS011;14490;54.208;37.686;2023-06-22T11:25:04;3.45;;;2.80;;
26634;SDS011;14490;54.208;37.686;2023-06-22T11:27:34;3.35;;;2.40;;
26634;SDS011;14490;54.208;37.686;2023-06-22T11:30:02;3.25;;;2.95;;
26634;SDS011;14490;54.208;37.686;2023-06-22T11:32:33;5.97;;;2.50;;
26634;SDS011;14490;54.208;37.686;2023-06-22T11:35:01;4.82;;;2.88;;
26634;SDS011;14490;54.208;37.686;2023-06-22T11:37:28;3.22;;;2.30;;
26634;SDS011;14490;54.208;37.686;2023-06-22T11:39:56;3.60;;;2.47;;
26634;SDS011;14490;54.208;37.686;2023-06-22T11:42:23;3.72;;;2.30;;
26634;SDS011;14490;54.208;37.686;2023-06-22T11:44:52;3.88;;;2.83;;
26634;SDS011;14490;54.208;37.686;2023-06-22T11:47:20;2.97;;;2.50;;
26634;SDS011;14490;54.208;37.686;2023-06-22T11:49:47;12.57;;;3.35;;
26634;SDS011;14490;54.208;37.686;2023-06-22T11:52:19;2.78;;;2.53;;
26634;SDS011;14490;54.208;37.686;2023-06-22T11:54:47;3.13;;;2.83;;
26634;SDS011;14490;54.208;37.686;2023-06-22T11:57:17;2.55;;;2.20;;
26634;SDS011;14490;54.208;37.686;2023-06-22T11:59:45;3.58;;;2.92;;
26634;SDS011;14490;54.208;37.686;2023-06-22T12:02:14;4.93;;;3.22;;
26634;SDS011;14490;54.208;37.686;2023-06-22T12:04:42;5.32;;;2.72;;
26634;SDS011;14490;54.208;37.686;2023-06-22T12:07:09;6.45;;;2.78;;
26634;SDS011;14490;54.208;37.686;2023-06-22T12:09:37;2.92;;;2.63;;
26634;SDS011;14490;54.208;37.686;2023-06-22T12:12:10;4.93;;;2.42;;
26634;SDS011;14490;54.208;37.686;2023-06-22T12:14:37;4.47;;;3.07;;
26634;SDS011;14490;54.208;37.686;2023-06-22T12:17:05;4.75;;;2.83;;
26634;SDS011;14490;54.208;37.686;2023-06-22T12:19:36;5.90;;;3.50;;
26634;SDS011;14490;54.208;37.686;2023-06-22T12:22:06;5.15;;;2.72;;
26634;SDS011;14490;54.208;37.686;2023-06-22T12:24:37;2.70;;;2.50;;
26634;SDS011;14490;54.208;37.686;2023-06-22T12:27:06;3.70;;;2.75;;
26634;SDS011;14490;54.208;37.686;2023-06-22T12:29:35;3.75;;;2.90;;
26634;SDS011;14490;54.208;37.686;2023-06-22T12:32:03;4.30;;;2.78;;
26634;SDS011;14490;54.208;37.686;2023-06-22T12:34:37;7.10;;;4.18;;
26634;SDS011;14490;54.208;37.686;2023-06-22T12:37:04;6.00;;;3.38;;
26634;SDS011;14490;54.208;37.686;2023-06-22T12:39:35;4.65;;;2.50;;
26634;SDS011;14490;54.208;37.686;2023-06-22T12:42:03;2.60;;;2.40;;
26634;SDS011;14490;54.208;37.686;2023-06-22T12:44:33;5.43;;;3.05;;
26634;SDS011;14490;54.208;37.686;2023-06-22T12:47:01;5.50;;;2.97;;
26634;SDS011;14490;54.208;37.686;2023-06-22T12:49:28;2.97;;;2.70;;
26634;SDS011;14490;54.208;37.686;2023-06-22T12:51:57;3.88;;;3.15;;
26634;SDS011;14490;54.208;37.686;2023-06-22T12:54:25;3.28;;;3.00;;
26634;SDS011;14490;54.208;37.686;2023-06-22T12:56:53;3.80;;;3.22;;
26634;SDS011;14490;54.208;37.686;2023-06-22T12:59:29;3.58;;;3.28;;
26634;SDS011;14490;54.208;37.686;2023-06-22T13:01:56;4.28;;;3.67;;
26634;SDS011;14490;54.208;37.686;2023-06-22T13:04:24;5.45;;;3.47;;
26634;SDS011;14490;54.208;37.686;2023-06-22T13:06:52;3.15;;;2.90;;
26634;SDS011;14490;54.208;37.686;2023-06-22T13:09:21;4.75;;;3.40;;
26634;SDS011;14490;54.208;37.686;2023-06-22T13:11:51;5.90;;;2.90;;
26634;SDS011;14490;54.208;37.686;2023-06-22T13:14:21;3.20;;;2.90;;
26634;SDS011;14490;54.208;37.686;2023-06-22T13:17:12;6.55;;;5.82;;
26634;SDS011;14490;54.208;37.686;2023-06-22T13:19:39;8.38;;;3.10;;
26634;SDS011;14490;54.208;37.686;2023-06-22T13:22:09;5.72;;;5.20;;
26634;SDS011;14490;54.208;37.686;2023-06-22T13:24:57;3.78;;;3.20;;
26634;SDS011;14490;54.208;37.686;2023-06-22T13:27:28;6.00;;;4.30;;
26634;SDS011;14490;54.208;37.686;2023-06-22T13:29:55;7.75;;;4.43;;
26634;SDS011;14490;54.208;37.686;2023-06-22T13:32:23;7.28;;;5.50;;
26634;SDS011;14490;54.208;37.686;2023-06-22T13:34:53;5.28;;;4.82;;
26634;SDS011;14490;54.208;37.686;2023-06-22T13:37:21;4.28;;;3.15;;
26634;SDS011;14490;54.208;37.686;2023-06-22T13:39:54;4.40;;;3.75;;
26634;SDS011;14490;54.208;37.686;2023-06-22T13:42:28;6.20;;;3.20;;
26634;SDS011;14490;54.208;37.686;2023-06-22T13:44:57;8.85;;;4.68;;
26634;SDS011;14490;54.208;37.686;2023-06-22T13:47:28;6.63;;;3.53;;
26634;SDS011;14490;54.208;37.686;2023-06-22T13:50:05;6.85;;;4.13;;
26634;SDS011;14490;54.208;37.686;2023-06-22T13:52:38;4.68;;;3.47;;
26634;SDS011;14490;54.208;37.686;2023-06-22T13:55:06;7.30;;;3.80;;
26634;SDS011;14490;54.208;37.686;2023-06-22T13:57:38;7.32;;;5.40;;
26634;SDS011;14490;54.208;37.686;2023-06-22T14:00:09;3.90;;;3.53;;
26634;SDS011;14490;54.208;37.686;2023-06-22T14:02:54;5.35;;;4.25;;
26634;SDS011;14490;54.208;37.686;2023-06-22T14:05:33;6.00;;;3.22;;
26634;SDS011;14490;54.208;37.686;2023-06-22T14:08:01;5.20;;;3.63;;
26634;SDS011;14490;54.208;37.686;2023-06-22T14:10:28;4.68;;;3.58;;
26634;SDS011;14490;54.208;37.686;2023-06-22T14:12:58;6.60;;;3.83;;
26634;SDS011;14490;54.208;37.686;2023-06-22T14:15:26;5.95;;;4.32;;
26634;SDS011;14490;54.208;37.686;2023-06-22T14:17:55;6.78;;;3.47;;
26634;SDS011;14490;54.208;37.686;2023-06-22T14:20:25;4.05;;;3.40;;
26634;SDS011;14490;54.208;37.686;2023-06-22T14:22:53;3.53;;;3.05;;
26634;SDS011;14490;54.208;37.686;2023-06-22T14:25:20;5.35;;;4.80;;
26634;SDS011;14490;54.208;37.686;2023-06-22T14:27:51;6.78;;;3.20;;
26634;SDS011;14490;54.208;37.686;2023-06-22T14:30:20;4.00;;;3.40;;
26634;SDS011;14490;54.208;37.686;2023-06-22T14:32:48;4.60;;;3.70;;
26634;SDS011;14490;54.208;37.686;2023-06-22T14:35:15;3.35;;;3.05;;
26634;SDS011;14490;54.208;37.686;2023-06-22T14:37:43;5.05;;;3.72;;
26634;SDS011;14490;54.208;37.686;2023-06-22T14:40:13;9.93;;;5.70;;
26634;SDS011;14490;54.208;37.686;2023-06-22T14:42:45;4.07;;;3.45;;
26634;SDS011;14490;54.208;37.686;2023-06-22T14:45:12;7.32;;;4.35;;
26634;SDS011;14490;54.208;37.686;2023-06-22T14:47:52;6.85;;;3.92;;
26634;SDS011;14490;54.208;37.686;2023-06-22T14:50:19;7.38;;;4.10;;
26634;SDS011;14490;54.208;37.686;2023-06-22T14:52:50;7.20;;;3.83;;
26634;SDS011;14490;54.208;37.686;2023-06-22T14:55:20;6.93;;;6.30;;